Archival Weather

Chicago O'Hare International

Chicago, Illinois (KORD)

Report from: Tuesday, December 6, 2022 10:35 PM CST
Current time: Saturday, February 4, 2023 11:05 PM CST

Current weather
Weather history
Weather forecast

Present weatherMist
Temperature2.2°C (36.0°F)
Wind chill0.7°C (33.2°F)
Dew point0.0°C (32.0°F)
Winds 3 kts (1.5 m/s, 3.5 mph) North-Northwest (330°)
Visibility5 mi. (8 km)
Clouds Ceiling: Broken clouds 1,500 ft. (457 m)
Broken clouds 2,500 ft. (762 m)
Altimeter30.08 in.Hg (1019 mB)
Relative humidity85 %
Density altitude-1,647 ft. (-502 m)
Remarks Automated weather observing station with precipitation discriminator
Flight conditions Marginal Visual Meteorological Conditions
Raw dataKORD 070435Z 33003KT 5SM BR BKN015 BKN025 02/00 A3008 RMK AO2 T00220000
An unhandled exception has occurred. See browser dev tools for details. Reload 🗙